createdAt,value
2022-11-28T00:01:17.357Z,25.95
2022-11-28T00:03:50.680Z,24.25
2022-11-28T00:06:24.613Z,24.18
2022-11-28T00:09:00.335Z,14.18
2022-11-28T00:11:33.760Z,17.82
2022-11-28T00:14:07.020Z,12.73
2022-11-28T00:16:40.866Z,21.68
2022-11-28T00:19:15.094Z,16.75
2022-11-28T00:21:48.672Z,20.00
2022-11-28T00:24:22.464Z,14.33
2022-11-28T00:26:55.931Z,13.43
2022-11-28T00:29:29.467Z,18.77
2022-11-28T00:32:03.568Z,15.23
2022-11-28T00:34:36.981Z,19.70
2022-11-28T00:37:10.665Z,20.77
2022-11-28T00:39:43.970Z,21.93
2022-11-28T00:42:19.168Z,28.80
2022-11-28T00:44:52.969Z,25.90
2022-11-28T00:47:26.412Z,19.40
2022-11-28T00:49:59.993Z,13.18
2022-11-28T00:52:35.886Z,14.93
2022-11-28T00:55:10.631Z,18.87
2022-11-28T00:57:44.213Z,19.17
2022-11-28T01:00:19.637Z,18.95
2022-11-28T01:02:53.218Z,19.52
2022-11-28T01:05:27.307Z,20.17
2022-11-28T01:08:01.002Z,17.32
2022-11-28T01:10:34.816Z,15.88
2022-11-28T01:13:08.473Z,19.30
2022-11-28T01:15:44.242Z,16.70
2022-11-28T01:18:17.626Z,22.17
2022-11-28T01:20:50.715Z,20.68
2022-11-28T01:23:24.111Z,28.10
2022-11-28T01:25:57.603Z,12.95
2022-11-28T01:28:31.247Z,23.62
2022-11-28T01:31:08.795Z,16.90
2022-11-28T01:33:42.410Z,11.93
2022-11-28T01:36:17.995Z,12.47
2022-11-28T01:38:52.048Z,13.68
2022-11-28T01:41:28.083Z,17.67
2022-11-28T01:44:07.312Z,13.90
2022-11-28T01:46:40.851Z,16.17
2022-11-28T01:49:17.462Z,16.00
2022-11-28T01:51:53.334Z,17.00
2022-11-28T01:54:28.517Z,13.60
2022-11-28T01:57:04.690Z,16.32
2022-11-28T01:59:40.833Z,19.45
2022-11-28T02:02:17.136Z,15.65
2022-11-28T02:04:51.763Z,14.60
2022-11-28T02:07:25.191Z,20.52
2022-11-28T02:09:59.062Z,18.48
2022-11-28T02:12:58.520Z,24.27
2022-11-28T02:18:29.447Z,15.50
2022-11-28T02:21:18.569Z,11.33
2022-11-28T02:24:27.096Z,11.00
2022-11-28T02:27:24.628Z,15.28
2022-11-28T02:30:16.217Z,10.05
2022-11-28T02:33:15.909Z,8.28
2022-11-28T02:35:58.035Z,13.28
2022-11-28T02:38:42.665Z,11.68
2022-11-28T02:41:22.186Z,12.88
2022-11-28T02:44:04.051Z,13.55
2022-11-28T02:46:38.815Z,11.78
2022-11-28T02:49:15.213Z,10.58
2022-11-28T02:51:52.297Z,12.98
2022-11-28T02:54:27.821Z,8.13
2022-11-28T02:57:03.217Z,11.28
2022-11-28T02:59:47.946Z,10.82
2022-11-28T03:02:24.107Z,11.53
2022-11-28T03:05:01.881Z,11.30
2022-11-28T03:10:22.712Z,7.93
2022-11-28T03:13:00.052Z,12.25
2022-11-28T03:15:36.686Z,11.45
2022-11-28T03:18:13.609Z,12.63
2022-11-28T03:20:49.948Z,9.47
2022-11-28T03:23:25.693Z,12.80
2022-11-28T03:26:02.369Z,10.20
2022-11-28T03:28:43.396Z,13.68
2022-11-28T03:31:16.922Z,12.50
2022-11-28T03:33:53.247Z,10.72
2022-11-28T03:36:29.178Z,11.03
2022-11-28T03:39:05.362Z,8.28
2022-11-28T03:41:41.463Z,12.93
2022-11-28T03:44:17.751Z,9.68
2022-11-28T03:46:53.276Z,11.00
2022-11-28T03:49:29.518Z,7.70
2022-11-28T03:52:05.740Z,10.58
2022-11-28T03:54:43.901Z,12.80
2022-11-28T03:57:20.760Z,12.07
2022-11-28T03:59:55.933Z,15.48
2022-11-28T04:02:32.371Z,12.53
2022-11-28T04:05:08.233Z,10.38
2022-11-28T04:07:44.379Z,9.38
2022-11-28T04:10:21.685Z,12.25
2022-11-28T04:13:00.360Z,9.10
2022-11-28T04:15:37.457Z,8.98
2022-11-28T04:18:15.233Z,13.30
2022-11-28T04:20:52.988Z,11.30
2022-11-28T04:23:28.253Z,11.55
2022-11-28T04:26:04.502Z,12.63
2022-11-28T04:28:40.861Z,12.55
2022-11-28T04:31:14.438Z,8.30
2022-11-28T04:33:50.916Z,11.22
2022-11-28T04:36:26.791Z,7.95
2022-11-28T04:39:02.091Z,13.35
2022-11-28T04:41:37.751Z,13.22
2022-11-28T04:44:15.417Z,13.30
2022-11-28T04:46:52.049Z,14.93
2022-11-28T04:49:28.172Z,10.78
2022-11-28T04:52:05.162Z,13.32
2022-11-28T04:54:45.595Z,9.58
2022-11-28T04:57:21.874Z,10.23
2022-11-28T04:59:56.871Z,9.88
2022-11-28T05:02:31.024Z,9.40
2022-11-28T05:05:06.124Z,10.85
2022-11-28T05:07:39.549Z,9.93
2022-11-28T05:10:15.097Z,14.85
2022-11-28T05:12:48.620Z,11.85
2022-11-28T05:15:22.383Z,15.13
2022-11-28T05:17:55.938Z,8.43
2022-11-28T05:20:29.872Z,14.90
2022-11-28T05:23:03.460Z,9.40
2022-11-28T05:25:38.916Z,13.72
2022-11-28T05:28:12.233Z,15.53
2022-11-28T05:30:45.300Z,13.68
2022-11-28T05:33:18.826Z,14.40
2022-11-28T05:35:52.320Z,11.88
2022-11-28T05:38:25.888Z,13.22
2022-11-28T05:40:59.692Z,12.78
2022-11-28T05:43:33.558Z,14.23
2022-11-28T05:46:08.588Z,9.98
2022-11-28T05:48:41.950Z,10.82
2022-11-28T05:51:15.535Z,14.00
2022-11-28T05:53:48.948Z,12.88
2022-11-28T05:56:23.890Z,11.35
2022-11-28T05:58:57.521Z,11.90
2022-11-28T06:01:32.465Z,12.65
2022-11-28T06:04:05.815Z,11.00
2022-11-28T06:06:39.419Z,10.32
2022-11-28T06:09:14.209Z,11.15
2022-11-28T06:11:47.570Z,11.40
2022-11-28T06:14:20.968Z,20.30
2022-11-28T06:16:54.624Z,10.95
2022-11-28T06:19:28.895Z,9.95
2022-11-28T06:22:02.091Z,15.08
2022-11-28T06:24:35.444Z,15.23
2022-11-28T06:27:08.591Z,10.85
2022-11-28T06:29:42.216Z,13.45
2022-11-28T06:32:21.684Z,13.93
2022-11-28T06:34:51.518Z,18.10
2022-11-28T06:37:24.755Z,11.40
2022-11-28T06:39:59.296Z,12.90
2022-11-28T06:42:35.697Z,18.65
2022-11-28T06:45:10.984Z,15.72
2022-11-28T06:47:45.795Z,10.50
2022-11-28T06:50:19.608Z,16.97
2022-11-28T06:52:53.459Z,12.50
2022-11-28T06:55:26.656Z,13.72
2022-11-28T06:58:00.404Z,10.05
2022-11-28T07:00:33.754Z,12.60
2022-11-28T07:03:07.569Z,14.18
2022-11-28T07:05:40.989Z,14.15
2022-11-28T07:08:14.872Z,11.97
2022-11-28T07:10:48.439Z,15.72
2022-11-28T07:13:21.988Z,12.28
2022-11-28T07:15:55.529Z,13.85
2022-11-28T07:18:29.139Z,14.33
2022-11-28T07:21:02.939Z,15.68
2022-11-28T07:23:36.042Z,15.58
2022-11-28T07:26:11.821Z,19.60
2022-11-28T07:28:46.842Z,14.58
2022-11-28T07:31:22.607Z,17.80
2022-11-28T07:33:56.391Z,13.88
2022-11-28T07:36:31.395Z,9.75
2022-11-28T07:39:08.455Z,9.50
2022-11-28T07:41:41.957Z,17.32
2022-11-28T07:46:59.064Z,9.58
2022-11-28T07:49:32.846Z,10.80
2022-11-28T07:52:05.935Z,9.33
2022-11-28T07:54:39.419Z,11.75
2022-11-28T07:57:13.519Z,13.68
2022-11-28T07:59:47.161Z,15.23
2022-11-28T08:02:20.971Z,15.23
2022-11-28T08:04:55.520Z,10.65
2022-11-28T08:07:29.188Z,12.60
2022-11-28T08:10:02.798Z,17.42
2022-11-28T08:12:36.413Z,10.25
2022-11-28T08:15:11.382Z,11.08
2022-11-28T08:17:45.054Z,10.70
2022-11-28T08:20:19.072Z,15.03
2022-11-28T08:22:53.036Z,12.55
2022-11-28T08:25:27.180Z,9.48
2022-11-28T08:28:00.414Z,12.63
2022-11-28T08:30:33.581Z,14.87
2022-11-28T08:33:06.962Z,11.00
2022-11-28T08:35:42.814Z,12.13
2022-11-28T08:38:15.962Z,9.40
2022-11-28T08:40:49.139Z,9.25
2022-11-28T08:43:22.352Z,11.95
2022-11-28T08:45:55.810Z,12.88
2022-11-28T08:48:29.597Z,14.35
2022-11-28T08:51:03.100Z,17.55
2022-11-28T08:53:36.847Z,16.32
2022-11-28T08:56:11.448Z,11.78
2022-11-28T08:58:45.053Z,14.50
2022-11-28T09:01:21.402Z,11.60
2022-11-28T09:03:56.011Z,14.45
2022-11-28T09:06:29.670Z,13.75
2022-11-28T09:09:03.067Z,13.95
2022-11-28T09:11:36.555Z,14.50
2022-11-28T09:14:10.672Z,13.05
2022-11-28T09:16:44.933Z,18.12
2022-11-28T09:19:18.475Z,14.25
2022-11-28T09:21:57.477Z,11.40
2022-11-28T09:24:27.355Z,17.70
2022-11-28T09:27:01.072Z,12.43
2022-11-28T09:29:34.823Z,13.10
2022-11-28T09:32:08.870Z,7.37
2022-11-28T09:34:42.617Z,12.45
2022-11-28T09:37:16.141Z,13.43
2022-11-28T09:40:12.007Z,10.10
2022-11-28T09:42:28.662Z,13.43
2022-11-28T09:45:04.690Z,11.83
2022-11-28T09:47:38.537Z,13.68
2022-11-28T09:50:17.768Z,11.05
2022-11-28T09:52:56.159Z,11.35
2022-11-28T09:55:35.640Z,9.85
2022-11-28T09:58:12.911Z,8.70
2022-11-28T10:00:54.078Z,8.43
2022-11-28T10:03:40.064Z,9.08
2022-11-28T10:06:19.291Z,11.00
2022-11-28T10:09:07.075Z,11.22
2022-11-28T10:11:48.353Z,11.65
2022-11-28T10:14:36.729Z,10.25
2022-11-28T10:17:15.632Z,8.93
2022-11-28T10:19:54.620Z,15.05
2022-11-28T10:22:31.695Z,11.57
2022-11-28T10:25:08.398Z,10.40
2022-11-28T10:27:42.572Z,10.18
2022-11-28T10:30:22.838Z,11.08
2022-11-28T10:33:01.704Z,9.90
2022-11-28T10:35:39.590Z,13.85
2022-11-28T10:38:14.687Z,11.10
2022-11-28T10:40:51.627Z,12.37
2022-11-28T10:43:35.191Z,13.18
2022-11-28T10:46:35.820Z,9.98
2022-11-28T10:49:21.074Z,12.00
2022-11-28T10:51:59.962Z,13.48
2022-11-28T10:54:46.189Z,10.88
2022-11-28T10:57:22.784Z,12.15
2022-11-28T11:00:03.265Z,13.18
2022-11-28T11:02:40.692Z,8.80
2022-11-28T11:05:17.282Z,12.15
2022-11-28T11:07:53.701Z,15.35
2022-11-28T11:10:30.517Z,6.25
2022-11-28T11:13:05.406Z,12.90
2022-11-28T11:15:39.654Z,8.90
2022-11-28T11:18:26.488Z,9.93
2022-11-28T11:21:17.098Z,8.50
2022-11-28T11:23:51.629Z,6.67
2022-11-28T11:26:28.625Z,7.83
2022-11-28T11:29:02.444Z,9.33
2022-11-28T11:31:38.306Z,5.28
2022-11-28T11:34:16.299Z,8.55
2022-11-28T11:36:49.816Z,9.60
2022-11-28T11:39:25.795Z,7.12
2022-11-28T11:42:17.758Z,8.10
2022-11-28T11:44:51.389Z,9.10
2022-11-28T11:47:42.371Z,6.87
2022-11-28T11:50:21.954Z,10.85
2022-11-28T11:53:07.248Z,7.47
2022-11-28T11:55:45.379Z,7.42
2022-11-28T11:58:21.689Z,10.93
2022-11-28T12:00:57.825Z,8.53
2022-11-28T12:03:33.981Z,8.43
2022-11-28T12:06:14.693Z,12.63
2022-11-28T12:08:50.737Z,6.42
2022-11-28T12:11:26.705Z,10.03
2022-11-28T12:14:02.166Z,9.00
2022-11-28T12:16:43.181Z,8.80
2022-11-28T12:19:22.998Z,5.70
2022-11-28T12:22:13.246Z,9.00
2022-11-28T12:24:50.629Z,7.97
2022-11-28T12:27:31.046Z,10.38
2022-11-28T12:30:13.359Z,11.68
2022-11-28T12:32:49.870Z,8.13
2022-11-28T12:35:28.031Z,10.70
2022-11-28T12:38:13.021Z,5.80
2022-11-28T12:40:46.349Z,11.63
2022-11-28T12:43:26.703Z,9.85
2022-11-28T12:46:03.509Z,8.15
2022-11-28T12:48:47.496Z,9.47
2022-11-28T12:51:23.098Z,7.42
2022-11-28T12:54:05.918Z,9.50
2022-11-28T12:56:45.741Z,7.87
2022-11-28T12:59:25.383Z,9.28
2022-11-28T13:02:09.477Z,7.35
2022-11-28T13:04:52.860Z,8.03
2022-11-28T13:07:30.473Z,11.43
2022-11-28T13:12:46.655Z,11.50
2022-11-28T13:15:23.233Z,11.48
2022-11-28T13:18:00.601Z,10.38
2022-11-28T13:20:36.547Z,9.08
2022-11-28T13:23:13.370Z,10.00
2022-11-28T13:25:50.079Z,11.23
2022-11-28T13:28:26.485Z,9.28
2022-11-28T13:31:02.520Z,14.23
2022-11-28T13:33:42.103Z,12.07
2022-11-28T13:39:11.803Z,10.03
2022-11-28T13:42:06.373Z,14.55
2022-11-28T13:44:15.766Z,7.37
2022-11-28T13:46:49.698Z,10.45
2022-11-28T13:49:26.159Z,14.38
2022-11-28T13:52:39.255Z,13.88
2022-11-28T13:55:39.211Z,13.18
2022-11-28T13:58:22.433Z,11.12
2022-11-28T14:03:58.960Z,9.15
2022-11-28T14:06:34.519Z,10.68
2022-11-28T14:09:10.644Z,12.28
2022-11-28T14:11:54.563Z,9.30
2022-11-28T14:17:54.672Z,9.90
2022-11-28T14:20:31.208Z,15.03
2022-11-28T14:23:13.542Z,10.48
2022-11-28T14:25:49.213Z,14.23
2022-11-28T14:28:27.110Z,10.15
2022-11-28T14:31:08.128Z,15.98
2022-11-28T14:33:43.867Z,14.68
2022-11-28T14:36:29.724Z,12.45
2022-11-28T14:39:12.152Z,12.85
2022-11-28T14:42:59.421Z,14.93
2022-11-28T14:45:42.634Z,11.12
2022-11-28T14:48:31.138Z,9.55
2022-11-28T14:51:04.626Z,8.88
2022-11-28T14:53:56.887Z,14.63
2022-11-28T14:56:31.327Z,14.68
2022-11-28T14:59:06.421Z,12.47
2022-11-28T15:01:53.245Z,10.60
2022-11-28T15:04:44.091Z,13.75
2022-11-28T15:07:28.146Z,11.88
2022-11-28T15:10:07.897Z,11.68
2022-11-28T15:12:47.904Z,15.50
2022-11-28T15:15:22.827Z,11.88
2022-11-28T15:17:58.783Z,12.88
2022-11-28T15:20:35.626Z,10.05
2022-11-28T15:23:17.673Z,10.78
2022-11-28T15:25:56.636Z,11.75
2022-11-28T15:28:32.591Z,14.18
2022-11-28T15:31:06.709Z,15.10
2022-11-28T15:33:41.480Z,15.48
2022-11-28T15:36:24.744Z,11.00
2022-11-28T15:38:58.398Z,10.58
2022-11-28T15:41:34.138Z,11.60
2022-11-28T15:44:09.574Z,12.30
2022-11-28T15:46:42.652Z,11.85
2022-11-28T15:49:29.218Z,9.10
2022-11-28T15:52:04.787Z,12.07
2022-11-28T15:54:42.008Z,12.03
2022-11-28T15:57:23.407Z,9.40
2022-11-28T15:59:57.442Z,9.93
2022-11-28T16:02:34.241Z,9.13
2022-11-28T16:05:10.868Z,9.33
2022-11-28T16:07:45.916Z,7.00
2022-11-28T16:10:26.941Z,8.20
2022-11-28T16:13:03.058Z,10.00
2022-11-28T16:15:37.096Z,9.48
2022-11-28T16:18:15.361Z,9.48
2022-11-28T16:20:49.482Z,12.13
2022-11-28T16:23:26.018Z,10.98
2022-11-28T16:26:03.981Z,6.53
2022-11-28T16:28:39.699Z,7.95
2022-11-28T16:31:21.689Z,11.85
2022-11-28T16:33:55.229Z,10.53
2022-11-28T16:36:34.539Z,8.43
2022-11-28T16:39:12.504Z,9.05
2022-11-28T16:41:50.435Z,12.82
2022-11-28T16:44:25.357Z,13.78
2022-11-28T16:46:59.802Z,15.88
2022-11-28T16:49:37.895Z,14.73
2022-11-28T16:52:46.405Z,11.45
2022-11-28T16:55:41.390Z,14.23
2022-11-28T16:58:17.621Z,9.45
2022-11-28T17:01:00.539Z,12.53
2022-11-28T17:03:52.517Z,11.35
2022-11-28T17:06:29.982Z,9.90
2022-11-28T17:09:03.876Z,10.08
2022-11-28T17:11:39.245Z,11.15
2022-11-28T17:14:14.158Z,12.55
2022-11-28T17:16:47.849Z,12.90
2022-11-28T17:19:21.493Z,12.95
2022-11-28T17:21:56.265Z,13.43
2022-11-28T17:24:31.560Z,9.48
2022-11-28T17:27:07.768Z,8.88
2022-11-28T17:29:42.146Z,11.57
2022-11-28T17:32:16.789Z,6.03
2022-11-28T17:34:50.804Z,8.45
2022-11-28T17:37:24.311Z,10.43
2022-11-28T17:40:35.075Z,11.97
2022-11-28T17:45:50.894Z,13.43
2022-11-28T17:48:25.160Z,8.30
2022-11-28T17:50:59.473Z,8.78
2022-11-28T17:53:32.899Z,8.55
2022-11-28T17:56:06.971Z,11.25
2022-11-28T17:58:40.320Z,7.22
2022-11-28T18:01:15.554Z,8.50
2022-11-28T18:03:49.091Z,7.17
2022-11-28T18:06:24.648Z,7.42
2022-11-28T18:09:00.534Z,8.23
2022-11-28T18:11:36.046Z,9.18
2022-11-28T18:14:13.191Z,9.55
2022-11-28T18:16:47.061Z,5.77
2022-11-28T18:19:23.509Z,9.80
2022-11-28T18:21:57.112Z,8.43
2022-11-28T18:24:30.845Z,10.75
2022-11-28T18:27:04.486Z,6.20
2022-11-28T18:29:37.515Z,8.63
2022-11-28T18:32:10.894Z,6.35
2022-11-28T18:34:44.525Z,4.10
2022-11-28T18:37:18.377Z,6.12
2022-11-28T18:39:52.420Z,9.95
2022-11-28T18:42:26.192Z,8.43
2022-11-28T18:44:59.726Z,8.40
2022-11-28T18:47:36.286Z,6.35
2022-11-28T18:50:14.321Z,8.38
2022-11-28T18:52:51.753Z,7.28
2022-11-28T18:55:26.320Z,7.55
2022-11-28T18:58:00.004Z,10.10
2022-11-28T19:00:33.058Z,7.12
2022-11-28T19:03:07.079Z,7.70
2022-11-28T19:05:45.393Z,8.58
2022-11-28T19:08:18.874Z,7.92
2022-11-28T19:10:52.679Z,9.83
2022-11-28T19:13:26.188Z,10.18
2022-11-28T19:15:59.743Z,6.97
2022-11-28T19:18:33.275Z,10.78
2022-11-28T19:21:10.635Z,10.40
2022-11-28T19:23:44.353Z,10.50
2022-11-28T19:26:19.887Z,7.37
2022-11-28T19:28:53.497Z,10.03
2022-11-28T19:31:28.824Z,11.38
2022-11-28T19:34:04.115Z,10.45
2022-11-28T19:36:40.838Z,9.43
2022-11-28T19:39:17.894Z,8.50
2022-11-28T19:41:52.953Z,8.98
2022-11-28T19:44:28.296Z,9.23
2022-11-28T19:47:02.267Z,12.73
2022-11-28T19:49:35.720Z,10.32
2022-11-28T19:52:09.355Z,10.15
2022-11-28T19:54:43.023Z,10.82
2022-11-28T19:57:16.508Z,11.18
2022-11-28T19:59:50.072Z,8.20
2022-11-28T20:02:26.433Z,9.20
2022-11-28T20:04:59.900Z,8.33
2022-11-28T20:07:34.784Z,8.73
2022-11-28T20:10:10.707Z,11.73
2022-11-28T20:12:43.834Z,9.43
2022-11-28T20:15:18.433Z,12.93
2022-11-28T20:17:53.965Z,9.63
2022-11-28T20:20:27.383Z,8.18
2022-11-28T20:23:01.599Z,9.30
2022-11-28T20:25:36.577Z,9.40
2022-11-28T20:28:10.036Z,11.48
2022-11-28T20:30:43.822Z,10.72
2022-11-28T20:33:17.438Z,8.73
2022-11-28T20:35:56.962Z,11.50
2022-11-28T20:38:28.121Z,9.10
2022-11-28T20:41:03.482Z,8.00
2022-11-28T20:43:38.554Z,8.53
2022-11-28T20:46:14.359Z,9.53
2022-11-28T20:48:47.898Z,8.85
2022-11-28T20:51:24.992Z,7.22
2022-11-28T20:53:59.763Z,9.23
2022-11-28T20:56:51.950Z,13.88
2022-11-28T20:59:12.822Z,8.95
2022-11-28T21:01:46.382Z,8.85
2022-11-28T21:04:20.421Z,8.83
2022-11-28T21:06:54.996Z,7.08
2022-11-28T21:09:28.542Z,7.40
2022-11-28T21:12:01.897Z,11.28
2022-11-28T21:14:35.353Z,10.28
2022-11-28T21:17:09.025Z,9.60
2022-11-28T21:19:42.917Z,6.83
2022-11-28T21:22:16.552Z,6.70
2022-11-28T21:24:51.459Z,9.45
2022-11-28T21:27:25.015Z,6.08
2022-11-28T21:29:58.681Z,8.38
2022-11-28T21:32:33.726Z,9.30
2022-11-28T21:35:08.662Z,10.35
2022-11-28T21:37:42.201Z,8.48
2022-11-28T21:40:16.916Z,8.30
2022-11-28T21:42:50.295Z,7.95
2022-11-28T21:45:23.996Z,6.92
2022-11-28T21:47:58.054Z,11.12
2022-11-28T21:50:31.596Z,12.30
2022-11-28T21:53:04.940Z,9.20
2022-11-28T21:55:39.516Z,10.80
2022-11-28T21:58:13.743Z,9.75
2022-11-28T22:00:53.696Z,10.45
2022-11-28T22:03:22.381Z,11.03
2022-11-28T22:06:02.294Z,10.48
2022-11-28T22:08:36.756Z,11.35
2022-11-28T22:11:12.943Z,11.35
2022-11-28T22:13:46.836Z,12.10
2022-11-28T22:16:22.962Z,11.33
2022-11-28T22:18:58.370Z,11.88
2022-11-28T22:24:09.513Z,11.85
2022-11-28T22:26:43.520Z,10.80
2022-11-28T22:29:17.589Z,14.53
2022-11-28T22:31:51.665Z,14.23
2022-11-28T22:34:24.890Z,14.85
2022-11-28T22:36:58.765Z,14.85
2022-11-28T22:39:32.514Z,11.60
2022-11-28T22:42:06.702Z,16.85
2022-11-28T22:44:40.378Z,13.75
2022-11-28T22:47:13.733Z,14.13
2022-11-28T22:49:47.369Z,10.35
2022-11-28T22:52:20.830Z,11.22
2022-11-28T22:54:54.646Z,12.28
2022-11-28T22:57:28.028Z,10.53
2022-11-28T23:00:01.647Z,12.45
2022-11-28T23:02:35.775Z,13.35
2022-11-28T23:05:10.516Z,17.45
2022-11-28T23:07:44.043Z,13.43
2022-11-28T23:10:19.138Z,14.78
2022-11-28T23:12:53.654Z,17.12
2022-11-28T23:15:27.403Z,13.93
2022-11-28T23:18:01.408Z,13.83
2022-11-28T23:20:34.783Z,14.35
2022-11-28T23:23:09.167Z,11.30
2022-11-28T23:25:42.567Z,12.28
2022-11-28T23:28:16.064Z,10.28
2022-11-28T23:30:49.467Z,14.05
2022-11-28T23:33:23.113Z,17.20
2022-11-28T23:35:59.768Z,16.27
2022-11-28T23:38:33.496Z,12.93
2022-11-28T23:41:06.823Z,15.38
2022-11-28T23:43:40.710Z,20.43
2022-11-28T23:46:15.359Z,13.22
2022-11-28T23:48:48.987Z,9.50
2022-11-28T23:51:24.054Z,14.20
2022-11-28T23:53:57.427Z,14.50
2022-11-28T23:56:31.846Z,10.88
2022-11-28T23:59:06.976Z,9.90
